createdAt,value
2018-04-27T00:00:57.137Z,963.90
2018-04-27T00:01:57.072Z,963.91
2018-04-27T00:02:57.008Z,963.89
2018-04-27T00:03:56.944Z,963.89
2018-04-27T00:04:56.879Z,963.85
2018-04-27T00:05:56.820Z,963.83
2018-04-27T00:06:56.751Z,963.82
2018-04-27T00:07:56.688Z,963.82
2018-04-27T00:08:56.624Z,963.77
2018-04-27T00:09:56.557Z,963.78
2018-04-27T00:10:56.495Z,963.74
2018-04-27T00:11:56.428Z,963.75
2018-04-27T00:12:56.367Z,963.76
2018-04-27T00:13:56.301Z,963.75
2018-04-27T00:14:56.236Z,963.74
2018-04-27T00:15:56.171Z,963.76
2018-04-27T00:16:56.108Z,963.78
2018-04-27T00:17:56.044Z,963.76
2018-04-27T00:18:55.977Z,963.79
2018-04-27T00:19:55.914Z,963.78
2018-04-27T00:20:55.849Z,963.77
2018-04-27T00:21:55.783Z,963.75
2018-04-27T00:22:55.717Z,963.72
2018-04-27T00:23:55.654Z,963.73
2018-04-27T00:24:55.594Z,963.73
2018-04-27T00:25:55.524Z,963.71
2018-04-27T00:26:55.469Z,963.74
2018-04-27T00:27:55.396Z,963.73
2018-04-27T00:28:55.331Z,963.71
2018-04-27T00:29:55.266Z,963.70
2018-04-27T00:30:55.205Z,963.72
2018-04-27T00:31:55.138Z,963.72
2018-04-27T00:32:55.071Z,963.72
2018-04-27T00:33:55.010Z,963.70
2018-04-27T00:34:54.945Z,963.71
2018-04-27T00:35:54.881Z,963.68
2018-04-27T00:36:54.819Z,963.67
2018-04-27T00:37:54.750Z,963.69
2018-04-27T00:38:54.685Z,963.71
2018-04-27T00:39:54.621Z,963.69
2018-04-27T00:40:54.558Z,963.68
2018-04-27T00:41:54.493Z,963.68
2018-04-27T00:42:54.428Z,963.61
2018-04-27T00:43:54.364Z,963.63
2018-04-27T00:44:54.298Z,963.63
2018-04-27T00:45:54.233Z,963.58
2018-04-27T00:46:54.170Z,963.59
2018-04-27T00:47:54.104Z,963.60
2018-04-27T00:48:54.045Z,963.54
2018-04-27T00:49:53.975Z,963.56
2018-04-27T00:50:53.913Z,963.54
2018-04-27T00:51:53.847Z,963.53
2018-04-27T00:52:53.780Z,963.51
2018-04-27T00:53:53.715Z,963.50
2018-04-27T00:54:53.653Z,963.49
2018-04-27T00:55:53.583Z,963.50
2018-04-27T00:56:53.523Z,963.49
2018-04-27T00:57:53.464Z,963.51
2018-04-27T00:58:53.395Z,963.50
2018-04-27T00:59:53.328Z,963.50
2018-04-27T01:00:53.264Z,963.48
2018-04-27T01:01:53.197Z,963.50
2018-04-27T01:02:53.135Z,963.52
2018-04-27T01:03:53.071Z,963.52
2018-04-27T01:04:53.005Z,963.52
2018-04-27T01:05:52.940Z,963.45
2018-04-27T01:06:52.880Z,963.41
2018-04-27T01:07:52.811Z,963.41
2018-04-27T01:08:52.747Z,963.39
2018-04-27T01:09:52.678Z,963.39
2018-04-27T01:10:52.616Z,963.36
2018-04-27T01:11:52.554Z,963.31
2018-04-27T01:12:52.485Z,963.32
2018-04-27T01:13:52.424Z,963.30
2018-04-27T01:14:52.358Z,963.27
2018-04-27T01:15:52.294Z,963.28
2018-04-27T01:16:52.230Z,963.23
2018-04-27T01:17:52.163Z,963.28
2018-04-27T01:18:52.098Z,963.23
2018-04-27T01:19:52.034Z,963.26
2018-04-27T01:20:51.967Z,963.27
2018-04-27T01:21:51.902Z,963.23
2018-04-27T01:22:51.838Z,963.22
2018-04-27T01:23:51.774Z,963.26
2018-04-27T01:24:51.710Z,963.22
2018-04-27T01:25:51.643Z,963.24
2018-04-27T01:26:51.581Z,963.28
2018-04-27T01:27:51.515Z,963.28
2018-04-27T01:28:51.451Z,963.28
2018-04-27T01:29:51.382Z,963.27
2018-04-27T01:30:51.317Z,963.22
2018-04-27T01:31:51.253Z,963.25
2018-04-27T01:32:51.187Z,963.20
2018-04-27T01:33:51.127Z,963.21
2018-04-27T01:34:51.058Z,963.23
2018-04-27T01:35:50.992Z,963.19
2018-04-27T01:36:50.935Z,963.18
2018-04-27T01:37:50.865Z,963.15
2018-04-27T01:38:50.797Z,963.13
2018-04-27T01:39:50.735Z,963.14
2018-04-27T01:40:50.667Z,963.09
2018-04-27T01:41:50.601Z,963.05
2018-04-27T01:42:50.539Z,963.03
2018-04-27T01:43:50.474Z,962.98
2018-04-27T01:44:50.409Z,962.94
2018-04-27T01:45:50.343Z,962.91
2018-04-27T01:46:50.281Z,962.88
2018-04-27T01:47:50.213Z,962.87
2018-04-27T01:48:50.148Z,962.85
2018-04-27T01:49:50.081Z,962.82
2018-04-27T01:50:50.019Z,962.83
2018-04-27T01:51:49.953Z,962.86
2018-04-27T01:52:49.888Z,962.85
2018-04-27T01:53:49.823Z,962.88
2018-04-27T01:54:49.757Z,962.81
2018-04-27T01:55:49.695Z,962.81
2018-04-27T01:56:49.626Z,962.80
2018-04-27T01:57:49.563Z,962.80
2018-04-27T01:58:49.503Z,962.84
2018-04-27T01:59:49.435Z,962.84
2018-04-27T02:00:49.370Z,962.81
2018-04-27T02:01:49.303Z,962.79
2018-04-27T02:02:49.235Z,962.75
2018-04-27T02:03:49.171Z,962.82
2018-04-27T02:04:49.106Z,962.82
2018-04-27T02:05:49.043Z,962.79
2018-04-27T02:06:48.977Z,962.78
2018-04-27T02:07:48.918Z,962.82
2018-04-27T02:08:48.844Z,962.84
2018-04-27T02:09:48.783Z,962.87
2018-04-27T02:10:48.715Z,962.84
2018-04-27T02:11:48.651Z,962.88
2018-04-27T02:12:48.585Z,962.85
2018-04-27T02:13:48.519Z,962.84
2018-04-27T02:14:48.456Z,962.85
2018-04-27T02:15:48.393Z,962.81
2018-04-27T02:16:48.322Z,962.83
2018-04-27T02:17:48.258Z,962.82
2018-04-27T02:18:48.193Z,962.84
2018-04-27T02:19:48.129Z,962.81
2018-04-27T02:20:48.064Z,962.79
2018-04-27T02:21:47.999Z,962.78
2018-04-27T02:22:47.933Z,962.77
2018-04-27T02:23:47.866Z,962.73
2018-04-27T02:24:47.800Z,962.73
2018-04-27T02:25:47.737Z,962.75
2018-04-27T02:26:47.671Z,962.71
2018-04-27T02:27:47.605Z,962.71
2018-04-27T02:28:47.541Z,962.72
2018-04-27T02:29:47.475Z,962.68
2018-04-27T02:30:47.421Z,962.66
2018-04-27T02:31:47.346Z,962.67
2018-04-27T02:32:47.278Z,962.67
2018-04-27T02:33:47.214Z,962.62
2018-04-27T02:34:47.152Z,962.60
2018-04-27T02:35:47.082Z,962.61
2018-04-27T02:36:47.018Z,962.56
2018-04-27T02:37:46.950Z,962.55
2018-04-27T02:38:46.884Z,962.58
2018-04-27T02:39:46.821Z,962.58
2018-04-27T02:40:46.753Z,962.58
2018-04-27T02:41:46.692Z,962.57
2018-04-27T02:42:46.623Z,962.53
2018-04-27T02:43:46.563Z,962.60
2018-04-27T02:44:46.492Z,962.60
2018-04-27T02:45:46.427Z,962.58
2018-04-27T02:46:46.361Z,962.59
2018-04-27T02:47:46.301Z,962.54
2018-04-27T02:48:46.232Z,962.54
2018-04-27T02:49:46.167Z,962.52
2018-04-27T02:50:46.100Z,962.52
2018-04-27T02:51:46.036Z,962.48
2018-04-27T02:52:45.970Z,962.47
2018-04-27T02:53:45.905Z,962.47
2018-04-27T02:54:45.839Z,962.42
2018-04-27T02:55:45.775Z,962.45
2018-04-27T02:56:45.709Z,962.42
2018-04-27T02:57:45.643Z,962.46
2018-04-27T02:58:45.577Z,962.47
2018-04-27T02:59:45.518Z,962.44
2018-04-27T03:00:45.446Z,962.39
2018-04-27T03:01:45.381Z,962.40
2018-04-27T03:02:45.317Z,962.38
2018-04-27T03:03:45.251Z,962.36
2018-04-27T03:04:45.186Z,962.34
2018-04-27T03:05:45.123Z,962.31
2018-04-27T03:06:45.056Z,962.25
2018-04-27T03:07:44.990Z,962.28
2018-04-27T03:08:44.925Z,962.25
2018-04-27T03:09:44.859Z,962.27
2018-04-27T03:10:44.793Z,962.25
2018-04-27T03:11:44.726Z,962.23
2018-04-27T03:12:44.662Z,962.20
2018-04-27T03:13:44.597Z,962.18
2018-04-27T03:14:44.530Z,962.18
2018-04-27T03:15:44.467Z,962.15
2018-04-27T03:16:44.399Z,962.17
2018-04-27T03:17:44.332Z,962.09
2018-04-27T03:18:44.268Z,962.13
2018-04-27T03:19:44.203Z,962.10
2018-04-27T03:20:44.142Z,962.07
2018-04-27T03:21:44.072Z,962.09
2018-04-27T03:22:44.006Z,962.06
2018-04-27T03:23:43.960Z,962.05
2018-04-27T03:24:43.877Z,962.06
2018-04-27T03:25:43.810Z,962.05
2018-04-27T03:26:43.745Z,962.02
2018-04-27T03:27:43.682Z,962.01
2018-04-27T03:28:43.615Z,961.98
2018-04-27T03:29:43.547Z,962.00
2018-04-27T03:30:43.482Z,961.97
2018-04-27T03:31:43.417Z,961.95
2018-04-27T03:32:43.351Z,961.88
2018-04-27T03:33:43.287Z,961.88
2018-04-27T03:34:43.222Z,961.86
2018-04-27T03:35:43.156Z,961.91
2018-04-27T03:36:43.095Z,961.91
2018-04-27T03:37:43.024Z,961.89
2018-04-27T03:38:42.959Z,961.87
2018-04-27T03:39:42.895Z,961.87
2018-04-27T03:40:42.825Z,961.87
2018-04-27T03:41:42.762Z,961.84
2018-04-27T03:42:42.702Z,961.83
2018-04-27T03:43:42.632Z,961.82
2018-04-27T03:44:42.566Z,961.77
2018-04-27T03:45:42.504Z,961.73
2018-04-27T03:46:42.435Z,961.70
2018-04-27T03:47:42.369Z,961.71
2018-04-27T03:48:42.305Z,961.72
2018-04-27T03:49:42.237Z,961.67
2018-04-27T03:50:42.176Z,961.66
2018-04-27T03:51:42.108Z,961.62
2018-04-27T03:52:42.042Z,961.59
2018-04-27T03:53:41.976Z,961.59
2018-04-27T03:54:41.910Z,961.59
2018-04-27T03:55:41.843Z,961.57
2018-04-27T03:56:41.778Z,961.57
2018-04-27T03:57:41.715Z,961.57
2018-04-27T03:58:41.649Z,961.53
2018-04-27T03:59:41.584Z,961.50
2018-04-27T04:00:41.528Z,961.48
2018-04-27T04:01:41.452Z,961.51
2018-04-27T04:02:41.387Z,961.48
2018-04-27T04:03:41.325Z,961.47
2018-04-27T04:04:41.255Z,961.45
2018-04-27T04:05:41.188Z,961.40
2018-04-27T04:06:41.130Z,961.35
2018-04-27T04:07:41.059Z,961.38
2018-04-27T04:08:40.992Z,961.35
2018-04-27T04:09:40.929Z,961.33
2018-04-27T04:10:40.862Z,961.31
2018-04-27T04:11:40.797Z,961.31
2018-04-27T04:12:40.730Z,961.30
2018-04-27T04:13:40.715Z,961.28
2018-04-27T04:14:40.601Z,961.26
2018-04-27T04:15:40.536Z,961.23
2018-04-27T04:16:40.469Z,961.23
2018-04-27T04:17:40.403Z,961.21
2018-04-27T04:18:40.337Z,961.23
2018-04-27T04:19:40.275Z,961.25
2018-04-27T04:20:40.205Z,961.22
2018-04-27T04:21:40.141Z,961.26
2018-04-27T04:22:40.075Z,961.26
2018-04-27T04:23:40.009Z,961.21
2018-04-27T04:24:39.943Z,961.22
2018-04-27T04:25:39.879Z,961.18
2018-04-27T04:26:39.819Z,961.20
2018-04-27T04:27:39.748Z,961.20
2018-04-27T04:28:39.681Z,961.25
2018-04-27T04:29:39.616Z,961.21
2018-04-27T04:30:39.551Z,961.21
2018-04-27T04:31:39.485Z,961.20
2018-04-27T04:32:39.416Z,961.25
2018-04-27T04:33:39.353Z,961.23
2018-04-27T04:34:39.288Z,961.23
2018-04-27T04:35:39.223Z,961.24
2018-04-27T04:36:39.158Z,961.24
2018-04-27T04:37:39.092Z,961.22
2018-04-27T04:38:39.026Z,961.21
2018-04-27T04:39:38.959Z,961.21
2018-04-27T04:40:38.895Z,961.23
2018-04-27T04:41:38.829Z,961.24
2018-04-27T04:42:38.764Z,961.26
2018-04-27T04:43:38.698Z,961.28
2018-04-27T04:44:38.631Z,961.27
2018-04-27T04:45:38.568Z,961.24
2018-04-27T04:46:38.503Z,961.24
2018-04-27T04:47:38.436Z,961.22
2018-04-27T04:48:38.368Z,961.21
2018-04-27T04:49:38.303Z,961.21
2018-04-27T04:50:38.240Z,961.18
2018-04-27T04:51:38.174Z,961.19
2018-04-27T04:52:38.189Z,961.20
2018-04-27T04:53:38.043Z,961.19
2018-04-27T04:54:37.976Z,961.21
2018-04-27T04:55:37.911Z,961.18
2018-04-27T04:56:37.848Z,961.22
2018-04-27T04:57:37.780Z,961.18
2018-04-27T04:58:37.714Z,961.24
2018-04-27T04:59:37.650Z,961.23
2018-04-27T05:00:37.584Z,961.26
2018-04-27T05:01:37.521Z,961.25
2018-04-27T05:02:37.456Z,961.28
2018-04-27T05:03:37.387Z,961.23
2018-04-27T05:04:37.321Z,961.28
2018-04-27T05:05:37.258Z,961.28
2018-04-27T05:06:37.192Z,961.28
2018-04-27T05:07:37.127Z,961.23
2018-04-27T05:08:37.060Z,961.26
2018-04-27T05:09:36.998Z,961.28
2018-04-27T05:10:37.014Z,961.28
2018-04-27T05:11:36.864Z,961.28
2018-04-27T05:12:36.798Z,961.25
2018-04-27T05:13:36.733Z,961.26
2018-04-27T05:14:36.668Z,961.27
2018-04-27T05:15:36.604Z,961.27
2018-04-27T05:16:36.538Z,961.28
2018-04-27T05:17:36.473Z,961.22
2018-04-27T05:18:36.406Z,961.22
2018-04-27T05:19:36.342Z,961.23
2018-04-27T05:20:36.276Z,961.28
2018-04-27T05:21:36.213Z,961.20
2018-04-27T05:22:36.149Z,961.21
2018-04-27T05:23:36.082Z,961.26
2018-04-27T05:24:36.015Z,961.22
2018-04-27T05:25:35.953Z,961.24
2018-04-27T05:26:35.885Z,961.21
2018-04-27T05:27:35.821Z,961.25
2018-04-27T05:28:35.756Z,961.24
2018-04-27T05:29:35.690Z,961.24
2018-04-27T05:30:35.625Z,961.24
2018-04-27T05:31:35.560Z,961.25
2018-04-27T05:32:35.496Z,961.26
2018-04-27T05:33:35.428Z,961.23
2018-04-27T05:34:35.364Z,961.21
2018-04-27T05:35:35.300Z,961.17
2018-04-27T05:36:35.241Z,961.21
2018-04-27T05:37:35.169Z,961.20
2018-04-27T05:38:35.105Z,961.19
2018-04-27T05:39:35.043Z,961.19
2018-04-27T05:40:35.018Z,961.15
2018-04-27T05:41:34.908Z,961.15
2018-04-27T05:42:34.844Z,961.14
2018-04-27T05:43:34.787Z,961.10
2018-04-27T05:44:34.716Z,961.11
2018-04-27T05:45:34.654Z,961.08
2018-04-27T05:46:34.582Z,961.09
2018-04-27T05:47:34.519Z,961.07
2018-04-27T05:48:34.460Z,961.06
2018-04-27T05:49:34.391Z,961.09
2018-04-27T05:50:34.325Z,961.09
2018-04-27T05:51:34.264Z,961.10
2018-04-27T05:52:34.196Z,961.05
2018-04-27T05:53:34.134Z,961.04
2018-04-27T05:54:34.069Z,961.01
2018-04-27T05:55:34.020Z,961.02
2018-04-27T05:56:33.933Z,961.01
2018-04-27T05:57:33.876Z,961.02
2018-04-27T05:58:33.810Z,960.98
2018-04-27T05:59:33.749Z,961.01
2018-04-27T06:00:33.679Z,960.96
2018-04-27T06:01:33.616Z,960.95
2018-04-27T06:02:33.550Z,960.94
2018-04-27T06:03:33.487Z,960.90
2018-04-27T06:04:33.434Z,960.88
2018-04-27T06:05:33.358Z,960.85
2018-04-27T06:06:33.293Z,960.87
2018-04-27T06:07:33.230Z,960.90
2018-04-27T06:08:33.165Z,960.84
2018-04-27T06:09:33.099Z,960.81
2018-04-27T06:10:33.038Z,960.84
2018-04-27T06:11:32.972Z,960.80
2018-04-27T06:12:32.908Z,960.79
2018-04-27T06:13:32.843Z,960.77
2018-04-27T06:14:32.779Z,960.73
2018-04-27T06:15:32.717Z,960.76
2018-04-27T06:16:32.651Z,960.71
2018-04-27T06:17:32.588Z,960.77
2018-04-27T06:18:32.521Z,960.74
2018-04-27T06:19:32.458Z,960.74
2018-04-27T06:20:32.388Z,960.71
2018-04-27T06:21:32.328Z,960.71
2018-04-27T06:22:32.266Z,960.75
2018-04-27T06:23:32.199Z,960.74
2018-04-27T06:24:32.135Z,960.73
2018-04-27T06:25:32.071Z,960.74
2018-04-27T06:26:32.008Z,960.70
2018-04-27T06:27:31.944Z,960.70
2018-04-27T06:28:31.879Z,960.73
2018-04-27T06:29:31.834Z,960.71
2018-04-27T06:30:31.751Z,960.68
2018-04-27T06:31:31.690Z,960.66
2018-04-27T06:32:31.624Z,960.66
2018-04-27T06:33:31.559Z,960.62
2018-04-27T06:34:31.492Z,960.58
2018-04-27T06:35:31.430Z,960.55
2018-04-27T06:36:31.366Z,960.60
2018-04-27T06:37:31.301Z,960.59
2018-04-27T06:38:31.244Z,960.63
2018-04-27T06:39:31.222Z,960.62
2018-04-27T06:40:31.118Z,960.59
2018-04-27T06:41:31.045Z,960.57
2018-04-27T06:42:30.983Z,960.54
2018-04-27T06:43:30.917Z,960.52
2018-04-27T06:44:30.855Z,960.49
2018-04-27T06:45:30.789Z,960.56
2018-04-27T06:46:30.729Z,960.49
2018-04-27T06:47:30.662Z,960.47
2018-04-27T06:48:30.598Z,960.49
2018-04-27T06:49:30.537Z,960.51
2018-04-27T06:50:30.475Z,960.48
2018-04-27T06:51:30.410Z,960.47
2018-04-27T06:52:30.347Z,960.50
2018-04-27T06:53:30.278Z,960.49
2018-04-27T06:54:30.215Z,960.44
2018-04-27T06:55:30.153Z,960.45
2018-04-27T06:56:30.087Z,960.44
2018-04-27T06:57:30.025Z,960.41
2018-04-27T06:58:29.960Z,960.46
2018-04-27T06:59:29.901Z,960.40
2018-04-27T07:00:29.831Z,960.42
2018-04-27T07:01:29.773Z,960.40
2018-04-27T07:02:29.706Z,960.35
2018-04-27T07:03:29.644Z,960.37
2018-04-27T07:04:29.578Z,960.32
2018-04-27T07:05:29.516Z,960.34
2018-04-27T07:06:29.450Z,960.31
2018-04-27T07:07:29.387Z,960.34
2018-04-27T07:08:29.326Z,960.26
2018-04-27T07:09:29.260Z,960.29
2018-04-27T07:10:29.201Z,960.32
2018-04-27T07:11:29.143Z,960.25
2018-04-27T07:12:29.070Z,960.31
2018-04-27T07:13:29.005Z,960.31
2018-04-27T07:14:28.943Z,960.26
2018-04-27T07:15:28.884Z,960.28
2018-04-27T07:16:28.816Z,960.27
2018-04-27T07:17:28.754Z,960.25
2018-04-27T07:18:28.689Z,960.22
2018-04-27T07:19:28.628Z,960.24
2018-04-27T07:20:28.567Z,960.22
2018-04-27T07:21:28.501Z,960.15
2018-04-27T07:22:28.439Z,960.19
2018-04-27T07:23:28.389Z,960.22
2018-04-27T07:24:28.318Z,960.18
2018-04-27T07:25:28.268Z,960.20
2018-04-27T07:26:28.186Z,960.17
2018-04-27T07:27:28.121Z,960.17
2018-04-27T07:28:28.056Z,960.14
2018-04-27T07:29:27.994Z,960.13
2018-04-27T07:30:27.933Z,960.07
2018-04-27T07:31:27.869Z,960.09
2018-04-27T07:32:27.815Z,960.06
2018-04-27T07:33:27.754Z,960.01
2018-04-27T07:34:27.682Z,959.96
2018-04-27T07:35:27.635Z,960.03
2018-04-27T07:36:27.553Z,960.05
2018-04-27T07:37:27.498Z,960.03
2018-04-27T07:38:27.428Z,960.02
2018-04-27T07:39:27.376Z,960.00
2018-04-27T07:40:27.300Z,960.02
2018-04-27T07:41:27.239Z,960.01
2018-04-27T07:42:27.227Z,960.05
2018-04-27T07:43:27.112Z,959.98
2018-04-27T07:44:27.049Z,959.96
2018-04-27T07:45:26.988Z,959.96
2018-04-27T07:46:26.925Z,959.93
2018-04-27T07:47:26.862Z,959.93
2018-04-27T07:48:26.798Z,959.92
2018-04-27T07:49:26.738Z,959.96
2018-04-27T07:50:26.672Z,959.90
2018-04-27T07:51:26.617Z,959.94
2018-04-27T07:52:26.547Z,959.93
2018-04-27T07:53:26.484Z,959.87
2018-04-27T07:54:26.426Z,959.88
2018-04-27T07:55:26.393Z,959.82
2018-04-27T07:56:26.295Z,959.88
2018-04-27T07:57:26.234Z,959.87
2018-04-27T07:58:26.172Z,959.83
2018-04-27T07:59:26.135Z,959.77
2018-04-27T08:00:26.047Z,959.81
2018-04-27T08:01:25.985Z,959.78
2018-04-27T08:02:25.945Z,959.76
2018-04-27T08:03:25.862Z,959.79
2018-04-27T08:04:25.795Z,959.76
2018-04-27T08:05:25.733Z,959.76
2018-04-27T08:06:25.671Z,959.77
2018-04-27T08:07:25.611Z,959.79
2018-04-27T08:08:25.550Z,959.81
2018-04-27T08:09:25.488Z,959.76
2018-04-27T08:10:25.424Z,959.78
2018-04-27T08:11:25.461Z,959.78
2018-04-27T08:12:25.299Z,959.80
2018-04-27T08:13:25.238Z,959.81
2018-04-27T08:14:25.175Z,959.77
2018-04-27T08:15:25.114Z,959.72
2018-04-27T08:16:25.051Z,959.70
2018-04-27T08:17:24.990Z,959.67
2018-04-27T08:18:24.926Z,959.71
2018-04-27T08:19:24.863Z,959.66
2018-04-27T08:20:24.806Z,959.62
2018-04-27T08:21:24.741Z,959.59
2018-04-27T08:22:24.680Z,959.60
2018-04-27T08:23:24.619Z,959.62
2018-04-27T08:24:24.554Z,959.59
2018-04-27T08:25:24.493Z,959.57
2018-04-27T08:26:24.431Z,959.57
2018-04-27T08:27:24.369Z,959.53
2018-04-27T08:28:24.314Z,959.50
2018-04-27T08:29:24.245Z,959.46
2018-04-27T08:30:24.184Z,959.45
2018-04-27T08:31:24.132Z,959.48
2018-04-27T08:32:24.056Z,959.45
2018-04-27T08:33:23.997Z,959.41
2018-04-27T08:34:23.936Z,959.37
2018-04-27T08:35:23.873Z,959.39
2018-04-27T08:36:23.812Z,959.35
2018-04-27T08:37:23.751Z,959.28
2018-04-27T08:38:23.687Z,959.31
2018-04-27T08:39:23.625Z,959.30
2018-04-27T08:40:23.566Z,959.31
2018-04-27T08:41:23.504Z,959.29
2018-04-27T08:42:23.446Z,959.26
2018-04-27T08:43:23.388Z,959.27
2018-04-27T08:44:23.319Z,959.24
2018-04-27T08:45:23.257Z,959.26
2018-04-27T08:46:23.197Z,959.24
2018-04-27T08:47:23.135Z,959.31
2018-04-27T08:48:23.075Z,959.19
2018-04-27T08:49:23.011Z,959.25
2018-04-27T08:50:22.990Z,959.29
2018-04-27T08:51:22.889Z,959.27
2018-04-27T08:52:22.827Z,959.23
2018-04-27T08:53:22.765Z,959.23
2018-04-27T08:54:22.704Z,959.19
2018-04-27T08:55:22.645Z,959.20
2018-04-27T08:56:22.581Z,959.17
2018-04-27T08:57:22.520Z,959.12
2018-04-27T08:58:22.469Z,959.07
2018-04-27T08:59:22.398Z,959.04
2018-04-27T09:00:22.337Z,959.14
2018-04-27T09:01:22.276Z,959.12
2018-04-27T09:02:22.214Z,959.06
2018-04-27T09:03:22.153Z,959.09
2018-04-27T09:04:22.091Z,959.00
2018-04-27T09:05:22.031Z,959.05
2018-04-27T09:06:22.008Z,959.01
2018-04-27T09:07:21.912Z,959.01
2018-04-27T09:08:21.847Z,958.95
2018-04-27T09:09:21.788Z,958.93
2018-04-27T09:10:21.727Z,958.95
2018-04-27T09:11:21.667Z,958.92
2018-04-27T09:12:21.605Z,958.92
2018-04-27T09:13:21.556Z,958.90
2018-04-27T09:14:21.484Z,958.87
2018-04-27T09:15:21.427Z,958.91
2018-04-27T09:16:21.368Z,958.82
2018-04-27T09:17:21.298Z,958.83
2018-04-27T09:18:21.238Z,958.92
2018-04-27T09:19:21.179Z,958.94
2018-04-27T09:20:21.118Z,958.93
2018-04-27T09:21:21.058Z,958.87
2018-04-27T09:22:20.997Z,958.90
2018-04-27T09:23:20.934Z,958.93
2018-04-27T09:24:20.874Z,958.90
2018-04-27T09:25:20.817Z,958.83
2018-04-27T09:26:20.763Z,958.88
2018-04-27T09:27:20.691Z,958.83
2018-04-27T09:28:20.631Z,958.80
2018-04-27T09:29:20.569Z,958.80
2018-04-27T09:30:20.512Z,958.81
2018-04-27T09:31:20.450Z,958.82
2018-04-27T09:32:20.464Z,958.75
2018-04-27T09:33:20.329Z,958.86
2018-04-27T09:34:20.267Z,958.80
2018-04-27T09:35:20.207Z,958.80
2018-04-27T09:36:20.147Z,958.85
2018-04-27T09:37:20.091Z,958.91
2018-04-27T09:38:20.030Z,958.85
2018-04-27T09:39:19.966Z,958.93
2018-04-27T09:40:19.908Z,958.84
2018-04-27T09:41:19.848Z,958.85
2018-04-27T09:42:19.789Z,958.81
2018-04-27T09:43:19.727Z,958.80
2018-04-27T09:44:19.666Z,958.80
2018-04-27T09:45:19.606Z,958.76
2018-04-27T09:46:19.545Z,958.82
2018-04-27T09:47:19.955Z,958.78
2018-04-27T09:48:19.427Z,958.77
2018-04-27T09:49:19.365Z,958.75
2018-04-27T09:50:19.305Z,958.80
2018-04-27T09:51:19.246Z,958.74
2018-04-27T09:52:19.189Z,958.78
2018-04-27T09:53:19.139Z,958.65
2018-04-27T09:54:19.070Z,958.63
2018-04-27T09:55:19.008Z,958.65
2018-04-27T09:56:18.959Z,958.65
2018-04-27T09:57:18.887Z,958.61
2018-04-27T09:58:18.829Z,958.62
2018-04-27T09:59:18.769Z,958.55
2018-04-27T10:00:18.741Z,958.59
2018-04-27T10:01:18.648Z,958.56
2018-04-27T10:02:18.594Z,958.50
2018-04-27T10:03:18.536Z,958.49
2018-04-27T10:04:18.474Z,958.52
2018-04-27T10:05:18.416Z,958.56
2018-04-27T10:06:18.359Z,958.50
2018-04-27T10:07:18.300Z,958.52
2018-04-27T10:08:18.242Z,958.49
2018-04-27T10:09:18.186Z,958.51
2018-04-27T10:10:18.130Z,958.44
2018-04-27T10:11:18.073Z,958.46
2018-04-27T10:12:18.021Z,958.44
2018-04-27T10:13:17.960Z,958.42
2018-04-27T10:14:17.905Z,958.41
2018-04-27T10:15:17.848Z,958.37
2018-04-27T10:16:17.793Z,958.32
2018-04-27T10:17:17.738Z,958.33
2018-04-27T10:18:17.684Z,958.32
2018-04-27T10:19:17.628Z,958.34
2018-04-27T10:20:17.571Z,958.35
2018-04-27T10:21:17.520Z,958.30
2018-04-27T10:22:17.463Z,958.28
2018-04-27T10:23:17.409Z,958.21
2018-04-27T10:24:17.352Z,958.21
2018-04-27T10:25:17.294Z,958.16
2018-04-27T10:26:17.242Z,958.19
2018-04-27T10:27:17.187Z,958.20
2018-04-27T10:28:17.132Z,958.12
2018-04-27T10:29:17.078Z,958.12
2018-04-27T10:30:17.026Z,958.10
2018-04-27T10:31:16.969Z,958.09
2018-04-27T10:32:16.915Z,958.06
2018-04-27T10:33:16.862Z,958.02
2018-04-27T10:34:16.804Z,958.00
2018-04-27T10:35:16.749Z,958.00
2018-04-27T10:36:16.698Z,957.92
2018-04-27T10:37:16.645Z,958.02
2018-04-27T10:38:16.587Z,957.96
2018-04-27T10:39:16.533Z,957.93
2018-04-27T10:40:16.477Z,957.96
2018-04-27T10:41:16.423Z,957.89
2018-04-27T10:42:16.367Z,957.84
2018-04-27T10:43:16.314Z,957.86
2018-04-27T10:44:16.255Z,957.87
2018-04-27T10:45:16.201Z,957.82
2018-04-27T10:46:16.147Z,957.83
2018-04-27T10:47:16.164Z,957.85
2018-04-27T10:48:16.041Z,957.81
2018-04-27T10:49:15.982Z,957.79
2018-04-27T10:50:15.984Z,957.74
2018-04-27T10:51:15.870Z,957.71
2018-04-27T10:52:15.831Z,957.77
2018-04-27T10:53:15.763Z,957.65
2018-04-27T10:54:15.706Z,957.60
2018-04-27T10:55:15.652Z,957.57
2018-04-27T10:56:15.594Z,957.52
2018-04-27T10:57:15.540Z,957.38
2018-04-27T10:58:15.487Z,957.54
2018-04-27T10:59:15.433Z,957.46
2018-04-27T11:00:15.375Z,957.47
2018-04-27T11:01:15.320Z,957.45
2018-04-27T11:02:15.265Z,957.47
2018-04-27T11:03:15.212Z,957.42
2018-04-27T11:04:15.156Z,957.44
2018-04-27T11:05:15.099Z,957.41
2018-04-27T11:06:15.043Z,957.41
2018-04-27T11:07:14.989Z,957.38
2018-04-27T11:08:14.931Z,957.42
2018-04-27T11:09:14.875Z,957.39
2018-04-27T11:10:14.821Z,957.38
2018-04-27T11:11:14.772Z,957.33
2018-04-27T11:12:14.711Z,957.33
2018-04-27T11:13:14.655Z,957.26
2018-04-27T11:14:14.599Z,957.25
2018-04-27T11:15:14.544Z,957.26
2018-04-27T11:16:14.503Z,957.24
2018-04-27T11:17:14.431Z,957.21
2018-04-27T11:18:14.376Z,957.23
2018-04-27T11:19:14.318Z,957.20
2018-04-27T11:20:14.265Z,957.18
2018-04-27T11:21:14.206Z,957.17
2018-04-27T11:22:14.148Z,957.19
2018-04-27T11:23:14.092Z,957.15
2018-04-27T11:24:14.033Z,957.19
2018-04-27T11:25:13.977Z,957.21
2018-04-27T11:26:13.921Z,957.20
2018-04-27T11:27:13.866Z,957.25
2018-04-27T11:28:13.805Z,957.22
2018-04-27T11:29:13.759Z,957.19
2018-04-27T11:30:13.693Z,957.14
2018-04-27T11:31:13.635Z,957.28
2018-04-27T11:32:13.577Z,957.15
2018-04-27T11:33:13.519Z,957.11
2018-04-27T11:34:13.461Z,957.12
2018-04-27T11:35:13.483Z,957.11
2018-04-27T11:36:13.346Z,957.11
2018-04-27T11:37:13.288Z,957.15
2018-04-27T11:38:13.229Z,957.12
2018-04-27T11:39:13.173Z,957.01
2018-04-27T11:40:13.114Z,957.03
2018-04-27T11:41:13.066Z,957.02
2018-04-27T11:42:12.998Z,957.02
2018-04-27T11:43:12.943Z,957.08
2018-04-27T11:44:12.877Z,957.04
2018-04-27T11:45:12.822Z,957.07
2018-04-27T11:46:12.761Z,957.06
2018-04-27T11:47:12.705Z,957.06
2018-04-27T11:48:12.642Z,957.06
2018-04-27T11:49:12.589Z,956.98
2018-04-27T11:50:12.527Z,957.01
2018-04-27T11:51:12.471Z,956.98
2018-04-27T11:52:12.415Z,956.93
2018-04-27T11:53:12.372Z,956.87
2018-04-27T11:54:12.295Z,956.90
2018-04-27T11:55:12.238Z,956.91
2018-04-27T11:56:12.178Z,956.87
2018-04-27T11:57:12.119Z,956.86
2018-04-27T11:58:12.059Z,956.86
2018-04-27T11:59:12.002Z,956.87
2018-04-27T12:00:11.943Z,956.78
2018-04-27T12:01:11.884Z,956.78
2018-04-27T12:02:11.823Z,956.79
2018-04-27T12:03:11.767Z,956.77
2018-04-27T12:04:11.708Z,956.74
2018-04-27T12:05:11.648Z,956.75
2018-04-27T12:06:11.591Z,956.73
2018-04-27T12:07:11.531Z,956.75
2018-04-27T12:08:11.470Z,956.75
2018-04-27T12:09:11.415Z,956.70
2018-04-27T12:10:11.352Z,956.71
2018-04-27T12:11:11.295Z,956.69
2018-04-27T12:12:11.236Z,956.72
2018-04-27T12:13:11.176Z,956.70
2018-04-27T12:14:11.119Z,956.69
2018-04-27T12:15:11.071Z,956.67
2018-04-27T12:16:11.003Z,956.70
2018-04-27T12:17:10.942Z,956.64
2018-04-27T12:18:10.882Z,956.60
2018-04-27T12:19:10.822Z,956.58
2018-04-27T12:20:10.763Z,956.51
2018-04-27T12:21:10.706Z,956.54
2018-04-27T12:22:10.646Z,956.52
2018-04-27T12:23:10.587Z,956.55
2018-04-27T12:24:10.527Z,956.53
2018-04-27T12:25:10.473Z,956.52
2018-04-27T12:26:10.409Z,956.50
2018-04-27T12:27:10.351Z,956.44
2018-04-27T12:28:10.293Z,956.43